Airfield :







YOU CAN JOIN US ON...

 
LOGIN :

Register | Disclaimer

   EN    FR    IT 

 









Legend :    VFR   Marginal VFR   IFR   Intensive IFR   Very Intensive IFR
Visi :
Ceiling :
>= 8 km
>= 3000ft
5 to 8 km
1000 to 3000 ft
1500m to 5 km
500 to 1000 ft
800 to 1500m
200 to 500 ft
< 800m
< 200 ft
Symbols :   Thunderstorms  Fog  Heavy snow  Heavy precipitations  Wind > 20 kt






- Airport Elevation : 83 ft


KBHB - Hancock County-Bar Harbor

CURRENT METAR :
  • 191656Z AUTO 27007KT 10SM FEW034 BKN046 OVC055 24/16 A2994 RMK AO2 SLP139 T02390161 PNO $

EXPIRED METARs :
  • 191556Z AUTO 28006KT 10SM BKN042 OVC049 23/17 A2994 RMK AO2 SLP140 T02280167 PNO $
  • 191456Z AUTO 31008KT 280V350 10SM BKN030 23/17 A2993 RMK AO2 SLP137 6//// T02330167 51010 PNO $
  • 191443Z AUTO 31008KT 10SM SCT030 23/17 A2993 RMK AO2 PNO $

TAF KBHB
Valid from the 19 at 14:00 until the 20 at 12:00 UTC


191424Z 1914/2012 27010KT P6SM BKN025
FM191600 27008KT P6SM BKN040
FM192100 20005KT P6SM FEW050
FM200300 VRB02KT P6SM FEW150
KZBW FIR / North America



MET'MAP, your aeronautical weather chart ! - Copyright ORBIFLY December 2007 - Disclaimer

ORBIFLY MET'MAP TEAM :

Programming & Development : Alexandra Zaïnal
Original concept : Baudouin d'Aumeries
Technical & hardware support : Manuel Goepfert
Assistance : Marc-Olivier Méhu




SOURCES & CREDITS :

   NOAA